sensor_id;sensor_type;location;lat;lon;timestamp;pressure;altitude;pressure_sealevel;temperature;humidity
72640;BME280;60683;51.730;8.762;2024-03-23T00:53:50;99683.72;;;6.20;100.00
72640;BME280;60683;51.730;8.762;2024-03-23T00:56:34;99675.13;;;6.18;100.00
72640;BME280;60683;51.730;8.762;2024-03-23T00:59:19;99677.44;;;6.08;100.00
72640;BME280;60683;51.730;8.762;2024-03-23T01:02:05;99671.13;;;6.03;100.00
72640;BME280;60683;51.730;8.762;2024-03-23T01:04:51;99676.66;;;6.01;100.00
72640;BME280;60683;51.730;8.762;2024-03-23T01:07:35;99667.19;;;6.05;100.00
72640;BME280;60683;51.730;8.762;2024-03-23T01:10:22;99658.84;;;5.95;100.00
72640;BME280;60683;51.730;8.762;2024-03-23T01:13:06;99670.72;;;5.99;100.00
72640;BME280;60683;51.730;8.762;2024-03-23T01:15:53;99658.81;;;6.02;100.00
72640;BME280;60683;51.730;8.762;2024-03-23T01:18:37;99659.03;;;6.00;100.00
72640;BME280;60683;51.730;8.762;2024-03-23T01:21:23;99656.56;;;5.98;100.00
72640;BME280;60683;51.730;8.762;2024-03-23T01:24:08;99653.88;;;6.05;100.00
72640;BME280;60683;51.730;8.762;2024-03-23T01:26:56;99655.25;;;6.14;100.00
72640;BME280;60683;51.730;8.762;2024-03-23T01:29:41;99648.06;;;6.15;100.00
72640;BME280;60683;51.730;8.762;2024-03-23T01:32:26;99647.28;;;6.08;100.00
72640;BME280;60683;51.730;8.762;2024-03-23T01:35:10;99641.13;;;6.07;100.00
72640;BME280;60683;51.730;8.762;2024-03-23T01:37:55;99643.00;;;6.00;100.00
72640;BME280;60683;51.730;8.762;2024-03-23T01:40:40;99637.84;;;6.05;100.00
72640;BME280;60683;51.730;8.762;2024-03-23T01:43:27;99636.22;;;6.04;100.00
72640;BME280;60683;51.730;8.762;2024-03-23T01:46:11;99624.94;;;6.02;100.00
72640;BME280;60683;51.730;8.762;2024-03-23T01:48:56;99620.84;;;6.00;100.00
72640;BME280;60683;51.730;8.762;2024-03-23T01:51:41;99612.03;;;5.99;100.00
72640;BME280;60683;51.730;8.762;2024-03-23T01:54:29;99604.88;;;5.93;100.00
72640;BME280;60683;51.730;8.762;2024-03-23T01:57:13;99614.97;;;5.91;100.00
72640;BME280;60683;51.730;8.762;2024-03-23T02:00:00;99613.50;;;5.95;100.00
72640;BME280;60683;51.730;8.762;2024-03-23T02:02:44;99608.59;;;5.85;100.00
72640;BME280;60683;51.730;8.762;2024-03-23T02:05:30;99603.69;;;5.82;100.00
72640;BME280;60683;51.730;8.762;2024-03-23T02:08:14;99600.47;;;5.74;100.00
72640;BME280;60683;51.730;8.762;2024-03-23T02:11:00;99586.09;;;5.75;100.00
72640;BME280;60683;51.730;8.762;2024-03-23T02:13:44;99595.91;;;5.81;100.00
72640;BME280;60683;51.730;8.762;2024-03-23T02:16:31;99581.78;;;5.74;100.00
72640;BME280;60683;51.730;8.762;2024-03-23T02:19:15;99586.31;;;5.73;100.00
72640;BME280;60683;51.730;8.762;2024-03-23T02:22:01;99586.09;;;5.75;100.00
72640;BME280;60683;51.730;8.762;2024-03-23T02:24:47;99576.47;;;5.74;100.00
72640;BME280;60683;51.730;8.762;2024-03-23T02:27:32;99584.09;;;5.70;100.00
72640;BME280;60683;51.730;8.762;2024-03-23T02:30:18;99580.44;;;5.64;100.00
72640;BME280;60683;51.730;8.762;2024-03-23T02:33:04;99577.78;;;5.64;100.00
72640;BME280;60683;51.730;8.762;2024-03-23T02:35:49;99583.72;;;5.67;100.00
72640;BME280;60683;51.730;8.762;2024-03-23T02:38:34;99585.56;;;5.66;100.00
72640;BME280;60683;51.730;8.762;2024-03-23T02:41:20;99587.59;;;5.71;100.00
72640;BME280;60683;51.730;8.762;2024-03-23T02:44:07;99583.72;;;5.67;100.00
72640;BME280;60683;51.730;8.762;2024-03-23T02:46:51;99582.28;;;5.64;100.00
72640;BME280;60683;51.730;8.762;2024-03-23T02:49:37;99582.94;;;5.59;100.00
72640;BME280;60683;51.730;8.762;2024-03-23T02:52:22;99574.94;;;5.59;100.00
72640;BME280;60683;51.730;8.762;2024-03-23T02:55:08;99577.63;;;5.53;100.00
72640;BME280;60683;51.730;8.762;2024-03-23T02:57:53;99578.88;;;5.50;100.00
72640;BME280;60683;51.730;8.762;2024-03-23T03:00:39;99582.81;;;5.41;100.00
72640;BME280;60683;51.730;8.762;2024-03-23T03:03:24;99575.44;;;5.43;100.00
72640;BME280;60683;51.730;8.762;2024-03-23T03:06:09;99577.09;;;5.38;100.00
72640;BME280;60683;51.730;8.762;2024-03-23T03:08:53;99575.88;;;5.33;100.00
72640;BME280;60683;51.730;8.762;2024-03-23T03:11:39;99564.84;;;5.30;100.00
72640;BME280;60683;51.730;8.762;2024-03-23T03:14:24;99567.31;;;5.25;100.00
72640;BME280;60683;51.730;8.762;2024-03-23T03:17:10;99563.41;;;5.27;100.00
72640;BME280;60683;51.730;8.762;2024-03-23T03:19:54;99554.00;;;5.25;100.00
72640;BME280;60683;51.730;8.762;2024-03-23T03:22:40;99565.25;;;5.27;100.00
72640;BME280;60683;51.730;8.762;2024-03-23T03:25:24;99556.63;;;5.31;100.00
72640;BME280;60683;51.730;8.762;2024-03-23T03:28:10;99549.69;;;5.24;100.00
72640;BME280;60683;51.730;8.762;2024-03-23T03:30:55;99552.56;;;5.22;100.00
72640;BME280;60683;51.730;8.762;2024-03-23T03:33:41;99551.19;;;5.20;100.00
72640;BME280;60683;51.730;8.762;2024-03-23T03:36:25;99546.06;;;5.18;100.00
72640;BME280;60683;51.730;8.762;2024-03-23T03:39:11;99538.00;;;5.25;100.00
72640;BME280;60683;51.730;8.762;2024-03-23T03:41:56;99536.22;;;5.19;100.00
72640;BME280;60683;51.730;8.762;2024-03-23T03:44:42;99553.38;;;5.23;100.00
72640;BME280;60683;51.730;8.762;2024-03-23T03:47:27;99552.41;;;5.17;100.00
72640;BME280;60683;51.730;8.762;2024-03-23T03:50:13;99548.50;;;5.20;100.00
72640;BME280;60683;51.730;8.762;2024-03-23T03:52:57;99549.53;;;5.19;100.00
72640;BME280;60683;51.730;8.762;2024-03-23T03:55:43;99553.88;;;5.13;100.00
72640;BME280;60683;51.730;8.762;2024-03-23T03:58:27;99548.75;;;5.12;100.00
72640;BME280;60683;51.730;8.762;2024-03-23T04:01:12;99535.91;;;4.95;100.00
72640;BME280;60683;51.730;8.762;2024-03-23T04:03:58;99551.66;;;5.04;100.00
72640;BME280;60683;51.730;8.762;2024-03-23T04:06:44;99547.16;;;4.97;100.00
72640;BME280;60683;51.730;8.762;2024-03-23T04:09:28;99540.00;;;4.98;100.00
72640;BME280;60683;51.730;8.762;2024-03-23T04:12:14;99546.19;;;4.85;100.00
72640;BME280;60683;51.730;8.762;2024-03-23T04:14:58;99538.19;;;4.85;100.00
72640;BME280;60683;51.730;8.762;2024-03-23T04:17:44;99548.25;;;4.77;100.00
72640;BME280;60683;51.730;8.762;2024-03-23T04:20:29;99543.75;;;4.77;100.00
72640;BME280;60683;51.730;8.762;2024-03-23T04:23:16;99546.22;;;4.79;100.00
72640;BME280;60683;51.730;8.762;2024-03-23T04:26:03;99541.09;;;4.77;100.00
72640;BME280;60683;51.730;8.762;2024-03-23T04:28:49;99545.41;;;4.78;100.00
72640;BME280;60683;51.730;8.762;2024-03-23T04:31:33;99546.41;;;4.77;100.00
72640;BME280;60683;51.730;8.762;2024-03-23T04:34:19;99535.56;;;4.72;100.00
72640;BME280;60683;51.730;8.762;2024-03-23T04:37:05;99533.53;;;4.74;100.00
72640;BME280;60683;51.730;8.762;2024-03-23T04:39:50;99526.56;;;4.73;100.00
72640;BME280;60683;51.730;8.762;2024-03-23T04:42:36;99541.31;;;4.76;100.00
72640;BME280;60683;51.730;8.762;2024-03-23T04:45:22;99549.91;;;4.71;100.00
72640;BME280;60683;51.730;8.762;2024-03-23T04:48:07;99555.91;;;4.60;100.00
72640;BME280;60683;51.730;8.762;2024-03-23T04:50:55;99553.66;;;4.57;100.00
72640;BME280;60683;51.730;8.762;2024-03-23T04:53:42;99550.78;;;4.58;100.00
72640;BME280;60683;51.730;8.762;2024-03-23T04:56:27;99548.56;;;4.49;100.00
72640;BME280;60683;51.730;8.762;2024-03-23T04:59:13;99547.94;;;4.47;100.00
72640;BME280;60683;51.730;8.762;2024-03-23T05:01:58;99547.13;;;4.46;100.00
72640;BME280;60683;51.730;8.762;2024-03-23T05:04:43;99543.03;;;4.44;100.00
72640;BME280;60683;51.730;8.762;2024-03-23T05:07:28;99551.44;;;4.41;100.00
72640;BME280;60683;51.730;8.762;2024-03-23T05:10:15;99540.38;;;4.44;100.00
72640;BME280;60683;51.730;8.762;2024-03-23T05:13:00;99556.97;;;4.46;100.00
72640;BME280;60683;51.730;8.762;2024-03-23T05:15:51;99552.06;;;4.43;100.00
72640;BME280;60683;51.730;8.762;2024-03-23T05:18:36;99560.44;;;4.40;100.00
72640;BME280;60683;51.730;8.762;2024-03-23T05:21:21;99556.56;;;4.36;100.00
72640;BME280;60683;51.730;8.762;2024-03-23T05:24:06;99559.44;;;4.41;100.00
72640;BME280;60683;51.730;8.762;2024-03-23T05:26:52;99552.06;;;4.43;100.00
72640;BME280;60683;51.730;8.762;2024-03-23T05:29:37;99543.25;;;4.42;100.00
72640;BME280;60683;51.730;8.762;2024-03-23T05:32:23;99525.03;;;4.46;100.00
72640;BME280;60683;51.730;8.762;2024-03-23T05:35:08;99499.59;;;4.56;100.00
72640;BME280;60683;51.730;8.762;2024-03-23T05:37:56;99485.06;;;4.59;100.00
72640;BME280;60683;51.730;8.762;2024-03-23T05:40:40;99493.88;;;4.59;100.00
72640;BME280;60683;51.730;8.762;2024-03-23T05:43:27;99525.41;;;4.56;100.00
72640;BME280;60683;51.730;8.762;2024-03-23T05:46:13;99532.59;;;4.55;100.00
72640;BME280;60683;51.730;8.762;2024-03-23T05:49:01;99525.63;;;4.48;100.00
72640;BME280;60683;51.730;8.762;2024-03-23T05:51:46;99531.56;;;4.50;100.00
72640;BME280;60683;51.730;8.762;2024-03-23T05:54:32;99541.38;;;4.56;100.00
72640;BME280;60683;51.730;8.762;2024-03-23T05:57:18;99540.16;;;4.58;100.00
72640;BME280;60683;51.730;8.762;2024-03-23T06:00:05;99534.41;;;4.55;100.00
72640;BME280;60683;51.730;8.762;2024-03-23T06:02:54;99533.38;;;4.62;100.00
72640;BME280;60683;51.730;8.762;2024-03-23T06:05:39;99537.69;;;4.57;100.00
72640;BME280;60683;51.730;8.762;2024-03-23T06:08:24;99541.38;;;4.56;100.00
72640;BME280;60683;51.730;8.762;2024-03-23T06:11:09;99534.44;;;4.48;100.00
72640;BME280;60683;51.730;8.762;2024-03-23T06:13:54;99537.50;;;4.58;100.00
72640;BME280;60683;51.730;8.762;2024-03-23T06:16:41;99522.53;;;4.57;100.00
72640;BME280;60683;51.730;8.762;2024-03-23T06:19:26;99527.84;;;4.64;100.00
72640;BME280;60683;51.730;8.762;2024-03-23T06:22:12;99532.91;;;4.72;100.00
72640;BME280;60683;51.730;8.762;2024-03-23T06:24:56;99534.34;;;4.68;100.00
72640;BME280;60683;51.730;8.762;2024-03-23T06:27:42;99536.00;;;4.69;100.00
72640;BME280;60683;51.730;8.762;2024-03-23T06:30:26;99539.09;;;4.66;100.00
72640;BME280;60683;51.730;8.762;2024-03-23T06:33:14;99529.84;;;4.69;100.00
72640;BME280;60683;51.730;8.762;2024-03-23T06:35:59;99524.31;;;4.70;100.00
72640;BME280;60683;51.730;8.762;2024-03-23T06:38:44;99525.53;;;4.74;100.00
72640;BME280;60683;51.730;8.762;2024-03-23T06:41:30;99522.84;;;4.81;100.00
72640;BME280;60683;51.730;8.762;2024-03-23T06:44:14;99532.25;;;4.83;100.00
72640;BME280;60683;51.730;8.762;2024-03-23T06:47:00;99537.59;;;4.83;100.00
72640;BME280;60683;51.730;8.762;2024-03-23T06:49:45;99540.25;;;4.83;100.00
72640;BME280;60683;51.730;8.762;2024-03-23T06:52:31;99542.31;;;4.75;100.00
72640;BME280;60683;51.730;8.762;2024-03-23T06:55:16;99538.00;;;4.80;100.00
72640;BME280;60683;51.730;8.762;2024-03-23T06:58:01;99542.91;;;4.83;100.00
72640;BME280;60683;51.730;8.762;2024-03-23T07:00:46;99535.13;;;4.82;100.00
72640;BME280;60683;51.730;8.762;2024-03-23T07:03:31;99540.66;;;4.87;100.00
72640;BME280;60683;51.730;8.762;2024-03-23T07:06:17;99533.50;;;4.81;100.00
72640;BME280;60683;51.730;8.762;2024-03-23T07:09:02;99537.16;;;4.86;100.00
72640;BME280;60683;51.730;8.762;2024-03-23T07:11:46;99551.88;;;4.95;100.00
72640;BME280;60683;51.730;8.762;2024-03-23T07:14:32;99549.22;;;4.95;100.00
72640;BME280;60683;51.730;8.762;2024-03-23T07:17:16;99550.25;;;4.94;100.00
72640;BME280;60683;51.730;8.762;2024-03-23T07:20:03;99561.31;;;4.98;100.00
72640;BME280;60683;51.730;8.762;2024-03-23T07:22:49;99555.97;;;5.05;100.00
72640;BME280;60683;51.730;8.762;2024-03-23T07:25:34;99551.84;;;5.09;100.00
72640;BME280;60683;51.730;8.762;2024-03-23T07:28:18;99561.22;;;5.18;100.00
72640;BME280;60683;51.730;8.762;2024-03-23T07:31:05;99563.63;;;5.26;100.00
72640;BME280;60683;51.730;8.762;2024-03-23T07:33:49;99553.53;;;5.35;100.00
72640;BME280;60683;51.730;8.762;2024-03-23T07:36:35;99558.97;;;5.53;100.00
72640;BME280;60683;51.730;8.762;2024-03-23T07:39:20;99557.47;;;5.63;100.00
72640;BME280;60683;51.730;8.762;2024-03-23T07:42:06;99556.91;;;5.55;100.00
72640;BME280;60683;51.730;8.762;2024-03-23T07:44:50;99558.91;;;5.66;100.00
72640;BME280;60683;51.730;8.762;2024-03-23T07:47:36;99565.50;;;5.57;100.00
72640;BME280;60683;51.730;8.762;2024-03-23T07:50:21;99558.41;;;5.44;100.00
72640;BME280;60683;51.730;8.762;2024-03-23T07:53:07;99561.59;;;5.59;100.00
72640;BME280;60683;51.730;8.762;2024-03-23T07:55:57;99554.59;;;5.65;100.00
72640;BME280;60683;51.730;8.762;2024-03-23T07:58:42;99559.97;;;5.83;100.00
72640;BME280;60683;51.730;8.762;2024-03-23T08:01:27;99557.91;;;5.92;100.00
72640;BME280;60683;51.730;8.762;2024-03-23T08:04:12;99558.19;;;6.09;100.00
72640;BME280;60683;51.730;8.762;2024-03-23T08:06:57;99560.56;;;5.92;100.00
72640;BME280;60683;51.730;8.762;2024-03-23T08:09:42;99568.84;;;5.77;100.00
72640;BME280;60683;51.730;8.762;2024-03-23T08:12:29;99572.34;;;5.78;100.00
72640;BME280;60683;51.730;8.762;2024-03-23T08:15:14;99564.63;;;5.70;100.00
72640;BME280;60683;51.730;8.762;2024-03-23T08:17:59;99565.25;;;5.96;100.00
72640;BME280;60683;51.730;8.762;2024-03-23T08:20:45;99568.66;;;6.10;100.00
72640;BME280;60683;51.730;8.762;2024-03-23T08:23:31;99563.50;;;6.34;100.00
72640;BME280;60683;51.730;8.762;2024-03-23T08:26:18;99562.66;;;6.58;100.00
72640;BME280;60683;51.730;8.762;2024-03-23T08:29:04;99559.00;;;6.52;100.00
72640;BME280;60683;51.730;8.762;2024-03-23T08:31:49;99556.28;;;6.34;100.00
72640;BME280;60683;51.730;8.762;2024-03-23T08:34:33;99551.34;;;6.38;100.00
72640;BME280;60683;51.730;8.762;2024-03-23T08:37:19;99547.34;;;6.47;100.00
72640;BME280;60683;51.730;8.762;2024-03-23T08:40:04;99555.53;;;6.70;100.00
72640;BME280;60683;51.730;8.762;2024-03-23T08:42:50;99561.53;;;6.84;100.00
72640;BME280;60683;51.730;8.762;2024-03-23T08:45:35;99562.56;;;7.01;100.00
72640;BME280;60683;51.730;8.762;2024-03-23T08:48:21;99566.50;;;6.80;100.00
72640;BME280;60683;51.730;8.762;2024-03-23T08:51:07;99565.97;;;6.90;100.00
72640;BME280;60683;51.730;8.762;2024-03-23T08:53:52;99569.97;;;6.81;100.00
72640;BME280;60683;51.730;8.762;2024-03-23T08:56:37;99569.09;;;6.87;100.00
72640;BME280;60683;51.730;8.762;2024-03-23T08:59:22;99569.38;;;6.79;100.00
72640;BME280;60683;51.730;8.762;2024-03-23T09:02:09;99568.78;;;6.77;100.00
72640;BME280;60683;51.730;8.762;2024-03-23T09:04:54;99569.84;;;6.76;100.00
72640;BME280;60683;51.730;8.762;2024-03-23T09:07:38;99577.34;;;6.85;100.00
72640;BME280;60683;51.730;8.762;2024-03-23T09:10:24;99574.59;;;6.92;100.00
72640;BME280;60683;51.730;8.762;2024-03-23T09:13:08;99575.63;;;7.09;100.00
72640;BME280;60683;51.730;8.762;2024-03-23T09:15:54;99565.13;;;7.26;100.00
72640;BME280;60683;51.730;8.762;2024-03-23T09:18:42;99571.00;;;7.46;100.00
72640;BME280;60683;51.730;8.762;2024-03-23T09:21:28;99573.06;;;7.62;100.00
72640;BME280;60683;51.730;8.762;2024-03-23T09:24:12;99566.44;;;7.65;100.00
72640;BME280;60683;51.730;8.762;2024-03-23T09:26:58;99564.13;;;7.69;100.00
72640;BME280;60683;51.730;8.762;2024-03-23T09:29:42;99555.44;;;7.96;100.00
72640;BME280;60683;51.730;8.762;2024-03-23T09:32:27;99557.22;;;8.14;100.00
72640;BME280;60683;51.730;8.762;2024-03-23T09:35:13;99548.81;;;7.99;100.00
72640;BME280;60683;51.730;8.762;2024-03-23T09:37:59;99542.44;;;8.23;100.00
72640;BME280;60683;51.730;8.762;2024-03-23T09:40:44;99544.66;;;8.15;100.00
72640;BME280;60683;51.730;8.762;2024-03-23T09:43:31;99552.16;;;7.83;100.00
72640;BME280;60683;51.730;8.762;2024-03-23T09:46:15;99556.69;;;7.41;100.00
72640;BME280;60683;51.730;8.762;2024-03-23T09:49:01;99557.13;;;7.08;100.00
72640;BME280;60683;51.730;8.762;2024-03-23T09:51:47;99545.50;;;7.02;100.00
72640;BME280;60683;51.730;8.762;2024-03-23T09:54:32;99544.38;;;7.10;100.00
72640;BME280;60683;51.730;8.762;2024-03-23T09:57:16;99541.97;;;7.20;100.00
72640;BME280;60683;51.730;8.762;2024-03-23T10:00:02;99529.78;;;7.24;100.00
72640;BME280;60683;51.730;8.762;2024-03-23T10:02:47;99540.03;;;7.69;100.00
72640;BME280;60683;51.730;8.762;2024-03-23T10:05:33;99519.84;;;7.96;100.00
72640;BME280;60683;51.730;8.762;2024-03-23T10:08:19;99536.03;;;8.24;100.00
72640;BME280;60683;51.730;8.762;2024-03-23T10:11:13;99531.50;;;8.13;99.58
72640;BME280;60683;51.730;8.762;2024-03-23T10:13:58;99532.78;;;8.22;100.00
72640;BME280;60683;51.730;8.762;2024-03-23T10:16:43;99521.84;;;8.36;100.00
72640;BME280;60683;51.730;8.762;2024-03-23T10:19:31;99519.13;;;8.71;98.21
72640;BME280;60683;51.730;8.762;2024-03-23T10:22:18;99518.19;;;8.77;96.80
72640;BME280;60683;51.730;8.762;2024-03-23T10:25:08;99525.22;;;8.54;96.63
72640;BME280;60683;51.730;8.762;2024-03-23T10:27:58;99516.47;;;8.71;98.01
72640;BME280;60683;51.730;8.762;2024-03-23T10:30:43;99510.25;;;9.22;96.33
72640;BME280;60683;51.730;8.762;2024-03-23T10:33:29;99516.28;;;9.29;81.78
72640;BME280;60683;51.730;8.762;2024-03-23T10:36:14;99513.25;;;9.25;83.75
72640;BME280;60683;51.730;8.762;2024-03-23T10:38:59;99506.84;;;9.43;84.31
72640;BME280;60683;51.730;8.762;2024-03-23T10:41:45;99505.88;;;9.49;86.42
72640;BME280;60683;51.730;8.762;2024-03-23T10:44:32;99526.53;;;8.92;90.18
72640;BME280;60683;51.730;8.762;2024-03-23T10:47:16;99533.09;;;7.91;91.25
72640;BME280;60683;51.730;8.762;2024-03-23T10:50:03;99546.72;;;7.18;94.68
72640;BME280;60683;51.730;8.762;2024-03-23T10:52:48;99617.50;;;5.73;99.63
72640;BME280;60683;51.730;8.762;2024-03-23T10:55:34;99626.09;;;3.60;100.00
72640;BME280;60683;51.730;8.762;2024-03-23T10:58:23;99626.97;;;2.78;100.00
72640;BME280;60683;51.730;8.762;2024-03-23T11:01:10;99638.44;;;2.51;100.00
72640;BME280;60683;51.730;8.762;2024-03-23T11:03:54;99622.16;;;2.54;100.00
72640;BME280;60683;51.730;8.762;2024-03-23T11:06:40;99614.63;;;2.64;100.00
72640;BME280;60683;51.730;8.762;2024-03-23T11:09:41;99597.38;;;2.81;100.00
72640;BME280;60683;51.730;8.762;2024-03-23T11:12:29;99580.97;;;3.12;100.00
72640;BME280;60683;51.730;8.762;2024-03-23T11:15:17;99573.16;;;3.58;100.00
72640;BME280;60683;51.730;8.762;2024-03-23T11:18:04;99569.69;;;4.11;100.00
72640;BME280;60683;51.730;8.762;2024-03-23T11:20:49;99574.56;;;4.33;100.00
72640;BME280;60683;51.730;8.762;2024-03-23T11:23:35;99585.22;;;4.40;100.00
72640;BME280;60683;51.730;8.762;2024-03-23T11:26:19;99604.66;;;4.47;100.00
72640;BME280;60683;51.730;8.762;2024-03-23T11:29:12;99614.69;;;4.39;100.00
72640;BME280;60683;51.730;8.762;2024-03-23T11:31:57;99613.47;;;4.21;100.00
72640;BME280;60683;51.730;8.762;2024-03-23T11:34:45;99597.91;;;4.18;100.00
72640;BME280;60683;51.730;8.762;2024-03-23T11:37:29;99590.75;;;4.39;100.00
72640;BME280;60683;51.730;8.762;2024-03-23T11:40:19;99586.72;;;4.94;100.00
72640;BME280;60683;51.730;8.762;2024-03-23T11:43:06;99582.13;;;5.90;100.00
72640;BME280;60683;51.730;8.762;2024-03-23T11:45:52;99566.56;;;6.55;100.00
72640;BME280;60683;51.730;8.762;2024-03-23T11:48:40;99564.03;;;7.15;100.00
72640;BME280;60683;51.730;8.762;2024-03-23T11:51:24;99567.84;;;7.38;100.00
72640;BME280;60683;51.730;8.762;2024-03-23T11:54:10;99556.38;;;8.02;100.00
72640;BME280;60683;51.730;8.762;2024-03-23T11:56:56;99552.00;;;8.43;100.00
72640;BME280;60683;51.730;8.762;2024-03-23T11:59:42;99545.13;;;8.47;100.00
72640;BME280;60683;51.730;8.762;2024-03-23T12:02:28;99536.38;;;8.75;100.00
72640;BME280;60683;51.730;8.762;2024-03-23T12:05:16;99533.84;;;8.45;100.00
72640;BME280;60683;51.730;8.762;2024-03-23T12:08:20;99520.91;;;8.07;100.00
72640;BME280;60683;51.730;8.762;2024-03-23T12:11:08;99522.50;;;7.96;100.00
72640;BME280;60683;51.730;8.762;2024-03-23T12:13:59;99520.22;;;7.46;100.00
72640;BME280;60683;51.730;8.762;2024-03-23T12:16:43;99524.44;;;7.24;100.00
72640;BME280;60683;51.730;8.762;2024-03-23T12:19:28;99517.22;;;6.76;100.00
72640;BME280;60683;51.730;8.762;2024-03-23T12:22:14;99528.28;;;6.43;100.00
72640;BME280;60683;51.730;8.762;2024-03-23T12:25:00;99527.09;;;6.39;100.00
72640;BME280;60683;51.730;8.762;2024-03-23T12:27:44;99510.16;;;6.27;100.00
72640;BME280;60683;51.730;8.762;2024-03-23T12:30:29;99511.88;;;6.40;100.00
72640;BME280;60683;51.730;8.762;2024-03-23T12:33:13;99500.88;;;6.84;100.00
72640;BME280;60683;51.730;8.762;2024-03-23T12:35:59;99503.72;;;6.89;100.00
72640;BME280;60683;51.730;8.762;2024-03-23T12:38:45;99484.56;;;6.92;100.00
72640;BME280;60683;51.730;8.762;2024-03-23T12:41:30;99495.25;;;6.92;100.00
72640;BME280;60683;51.730;8.762;2024-03-23T12:44:15;99497.47;;;6.95;100.00
72640;BME280;60683;51.730;8.762;2024-03-23T12:47:01;99504.97;;;6.87;100.00
72640;BME280;60683;51.730;8.762;2024-03-23T12:49:46;99526.31;;;6.75;100.00
72640;BME280;60683;51.730;8.762;2024-03-23T12:52:30;99542.91;;;6.59;100.00
72640;BME280;60683;51.730;8.762;2024-03-23T12:55:17;99549.97;;;6.28;100.00
72640;BME280;60683;51.730;8.762;2024-03-23T12:58:04;99556.34;;;6.09;100.00
72640;BME280;60683;51.730;8.762;2024-03-23T13:00:48;99550.44;;;6.01;100.00
72640;BME280;60683;51.730;8.762;2024-03-23T13:03:33;99559.13;;;6.21;100.00
72640;BME280;60683;51.730;8.762;2024-03-23T13:06:18;99558.38;;;6.32;100.00
72640;BME280;60683;51.730;8.762;2024-03-23T13:09:04;99551.06;;;6.46;100.00
72640;BME280;60683;51.730;8.762;2024-03-23T13:11:51;99561.00;;;6.57;100.00
72640;BME280;60683;51.730;8.762;2024-03-23T13:14:36;99560.34;;;6.61;100.00
72640;BME280;60683;51.730;8.762;2024-03-23T13:17:21;99565.91;;;6.60;100.00
72640;BME280;60683;51.730;8.762;2024-03-23T13:20:07;99572.28;;;6.77;100.00
72640;BME280;60683;51.730;8.762;2024-03-23T13:22:57;99562.03;;;7.11;100.00
72640;BME280;60683;51.730;8.762;2024-03-23T13:25:49;99554.00;;;7.71;100.00
72640;BME280;60683;51.730;8.762;2024-03-23T13:28:38;99546.16;;;8.11;98.46
72640;BME280;60683;51.730;8.762;2024-03-23T13:31:23;99550.84;;;8.27;94.48
72640;BME280;60683;51.730;8.762;2024-03-23T13:34:10;99538.97;;;8.46;90.69
72640;BME280;60683;51.730;8.762;2024-03-23T13:36:56;99544.91;;;8.60;93.65
72640;BME280;60683;51.730;8.762;2024-03-23T13:39:42;99546.06;;;8.76;90.26
72640;BME280;60683;51.730;8.762;2024-03-23T13:42:28;99536.53;;;8.96;86.48
72640;BME280;60683;51.730;8.762;2024-03-23T13:45:14;99530.03;;;8.92;85.44
72640;BME280;60683;51.730;8.762;2024-03-23T13:47:59;99532.09;;;8.62;85.54
72640;BME280;60683;51.730;8.762;2024-03-23T13:50:43;99547.34;;;8.73;87.35
72640;BME280;60683;51.730;8.762;2024-03-23T13:53:29;99536.41;;;9.03;89.56
72640;BME280;60683;51.730;8.762;2024-03-23T13:56:14;99526.19;;;8.88;86.75
72640;BME280;60683;51.730;8.762;2024-03-23T13:59:00;99517.91;;;9.30;86.46
72640;BME280;60683;51.730;8.762;2024-03-23T14:01:46;99511.00;;;9.34;84.43
72640;BME280;60683;51.730;8.762;2024-03-23T14:04:31;99503.13;;;9.44;83.21
72640;BME280;60683;51.730;8.762;2024-03-23T14:07:15;99505.16;;;9.54;83.45
72640;BME280;60683;51.730;8.762;2024-03-23T14:10:02;99493.19;;;9.45;82.95
72640;BME280;60683;51.730;8.762;2024-03-23T14:12:47;99487.94;;;9.50;80.94
72640;BME280;60683;51.730;8.762;2024-03-23T14:15:32;99483.31;;;9.17;82.33
72640;BME280;60683;51.730;8.762;2024-03-23T14:18:18;99495.97;;;8.65;82.42
72640;BME280;60683;51.730;8.762;2024-03-23T14:21:04;99506.94;;;8.16;82.25
72640;BME280;60683;51.730;8.762;2024-03-23T14:23:48;99532.34;;;7.60;84.91
72640;BME280;60683;51.730;8.762;2024-03-23T14:26:34;99570.63;;;5.90;93.74
72640;BME280;60683;51.730;8.762;2024-03-23T14:29:19;99563.72;;;5.13;100.00
72640;BME280;60683;51.730;8.762;2024-03-23T14:32:05;99563.16;;;4.97;100.00
72640;BME280;60683;51.730;8.762;2024-03-23T14:34:51;99568.25;;;5.06;100.00
72640;BME280;60683;51.730;8.762;2024-03-23T14:37:38;99553.72;;;5.40;100.00
72640;BME280;60683;51.730;8.762;2024-03-23T14:40:23;99539.06;;;6.12;100.00
72640;BME280;60683;51.730;8.762;2024-03-23T14:43:10;99537.00;;;6.75;100.00
72640;BME280;60683;51.730;8.762;2024-03-23T14:46:06;99512.50;;;7.38;96.89
72640;BME280;60683;51.730;8.762;2024-03-23T14:48:50;99512.16;;;7.76;94.31
72640;BME280;60683;51.730;8.762;2024-03-23T14:51:39;99506.47;;;8.19;93.18
72640;BME280;60683;51.730;8.762;2024-03-23T14:54:23;99519.41;;;8.46;90.67
72640;BME280;60683;51.730;8.762;2024-03-23T14:57:09;99514.97;;;8.40;79.43
72640;BME280;60683;51.730;8.762;2024-03-23T14:59:54;99508.09;;;8.20;81.77
72640;BME280;60683;51.730;8.762;2024-03-23T15:02:40;99487.25;;;7.99;82.33
72640;BME280;60683;51.730;8.762;2024-03-23T15:05:24;99490.28;;;8.14;87.19
72640;BME280;60683;51.730;8.762;2024-03-23T15:08:11;99497.50;;;7.79;87.70
72640;BME280;60683;51.730;8.762;2024-03-23T15:10:58;99495.41;;;7.39;88.34
72640;BME280;60683;51.730;8.762;2024-03-23T15:13:44;99501.38;;;7.11;91.24
72640;BME280;60683;51.730;8.762;2024-03-23T15:16:29;99537.09;;;6.98;95.02
72640;BME280;60683;51.730;8.762;2024-03-23T15:19:14;99534.97;;;6.71;97.81
72640;BME280;60683;51.730;8.762;2024-03-23T15:21:59;99552.47;;;6.48;98.79
72640;BME280;60683;51.730;8.762;2024-03-23T15:24:45;99546.81;;;6.38;100.00
72640;BME280;60683;51.730;8.762;2024-03-23T15:27:30;99536.22;;;6.50;100.00
72640;BME280;60683;51.730;8.762;2024-03-23T15:30:15;99543.03;;;6.46;100.00
72640;BME280;60683;51.730;8.762;2024-03-23T15:33:00;99529.78;;;6.76;100.00